createdAt,value
2019-01-04T00:01:35.212Z,2.64
2019-01-04T00:04:07.668Z,2.70
2019-01-04T00:06:36.624Z,2.62
2019-01-04T00:09:07.272Z,2.53
2019-01-04T00:11:38.400Z,2.49
2019-01-04T00:14:09.242Z,2.46
2019-01-04T00:16:39.490Z,2.42
2019-01-04T00:19:08.928Z,2.42
2019-01-04T00:21:39.558Z,2.38
2019-01-04T00:24:09.786Z,2.38
2019-01-04T00:26:39.041Z,2.40
2019-01-04T00:29:07.983Z,2.39
2019-01-04T00:31:37.224Z,2.43
2019-01-04T00:34:06.686Z,2.42
2019-01-04T00:36:36.108Z,2.39
2019-01-04T00:39:06.852Z,2.37
2019-01-04T00:41:37.419Z,2.31
2019-01-04T00:44:06.351Z,1.66
2019-01-04T00:46:35.627Z,2.33
2019-01-04T00:49:04.619Z,2.38
2019-01-04T00:51:34.081Z,2.31
2019-01-04T00:54:08.087Z,2.34
2019-01-04T00:57:35.792Z,2.18
2019-01-04T01:00:46.136Z,1.90
2019-01-04T01:04:07.329Z,1.80
2019-01-04T01:07:26.734Z,1.75
2019-01-04T01:10:19.433Z,1.76
2019-01-04T01:13:24.991Z,1.82
2019-01-04T01:16:43.272Z,1.85
2019-01-04T01:19:48.343Z,1.96
2019-01-04T01:22:57.182Z,1.71
2019-01-04T01:26:04.479Z,1.81
2019-01-04T01:29:19.222Z,1.42
2019-01-04T01:31:56.585Z,1.07
2019-01-04T01:35:04.960Z,1.17
2019-01-04T01:38:16.034Z,1.30
2019-01-04T01:40:58.578Z,1.35
2019-01-04T01:44:20.505Z,1.10
2019-01-04T01:47:02.317Z,1.10
2019-01-04T01:50:16.858Z,1.10
2019-01-04T01:52:50.492Z,1.18
2019-01-04T01:55:22.725Z,0.90
2019-01-04T01:57:51.673Z,0.95
2019-01-04T02:00:20.878Z,0.84
2019-01-04T02:02:53.066Z,0.15
2019-01-04T02:05:22.015Z,0.99
2019-01-04T02:07:52.121Z,0.81
2019-01-04T02:10:21.085Z,0.60
2019-01-04T02:12:50.044Z,0.69
2019-01-04T02:15:21.277Z,0.76
2019-01-04T02:17:50.507Z,0.87
2019-01-04T02:20:19.464Z,0.88
2019-01-04T02:22:54.031Z,0.98
2019-01-04T02:25:25.205Z,0.64
2019-01-04T02:27:54.134Z,0.70
2019-01-04T02:30:23.648Z,0.78
2019-01-04T02:32:54.147Z,0.52
2019-01-04T02:35:24.097Z,0.67
2019-01-04T02:37:54.071Z,0.76
2019-01-04T02:40:23.019Z,0.81
2019-01-04T02:42:55.026Z,0.84
2019-01-04T02:45:24.702Z,0.83
2019-01-04T02:47:54.057Z,0.90
2019-01-04T02:50:23.317Z,0.89
2019-01-04T02:52:54.602Z,0.82
2019-01-04T02:55:24.180Z,0.79
2019-01-04T02:57:57.830Z,0.79
2019-01-04T03:00:28.368Z,0.84
2019-01-04T03:02:58.300Z,0.84
2019-01-04T03:05:29.358Z,0.85
2019-01-04T03:08:00.306Z,0.83
2019-01-04T03:10:29.482Z,0.83
2019-01-04T03:12:59.584Z,0.76
2019-01-04T03:15:30.782Z,0.68
2019-01-04T03:17:59.715Z,0.63
2019-01-04T03:20:29.822Z,0.33
2019-01-04T03:23:03.060Z,0.42
2019-01-04T03:25:34.624Z,0.30
2019-01-04T03:28:05.654Z,0.21
2019-01-04T03:30:35.652Z,0.25
2019-01-04T03:33:06.476Z,0.11
2019-01-04T03:35:45.877Z,0.17
2019-01-04T03:38:17.206Z,0.27
2019-01-04T03:40:48.170Z,0.38
2019-01-04T03:43:18.170Z,0.42
2019-01-04T03:45:49.260Z,0.44
2019-01-04T03:48:20.004Z,0.47
2019-01-04T03:50:49.198Z,0.47
2019-01-04T03:53:19.640Z,0.47
2019-01-04T03:55:50.513Z,0.48
2019-01-04T03:58:19.749Z,0.42
2019-01-04T04:00:48.892Z,0.31
2019-01-04T04:03:18.649Z,0.41
2019-01-04T04:05:47.598Z,0.31
2019-01-04T04:08:17.326Z,0.27
2019-01-04T04:10:46.272Z,0.36
2019-01-04T04:13:16.606Z,0.27
2019-01-04T04:15:45.502Z,0.38
2019-01-04T04:18:16.433Z,0.44
2019-01-04T04:20:45.398Z,0.44
2019-01-04T04:23:14.814Z,0.42
2019-01-04T04:25:43.763Z,0.46
2019-01-04T04:28:12.974Z,0.48
2019-01-04T04:30:42.676Z,0.20
2019-01-04T04:33:11.632Z,0.29
2019-01-04T04:35:40.795Z,0.17
2019-01-04T04:38:11.806Z,0.02
2019-01-04T04:40:41.087Z,-0.21
2019-01-04T04:43:12.327Z,-0.23
2019-01-04T04:45:42.446Z,-0.12
2019-01-04T04:48:14.299Z,0.01
2019-01-04T04:50:43.269Z,-0.07
2019-01-04T04:53:14.343Z,0.06
2019-01-04T04:55:43.570Z,-0.19
2019-01-04T04:58:12.651Z,-0.44
2019-01-04T05:00:42.997Z,-0.47
2019-01-04T05:03:14.607Z,-0.33
2019-01-04T05:05:43.954Z,-0.48
2019-01-04T05:08:14.053Z,-0.41
2019-01-04T05:10:43.313Z,-0.30
2019-01-04T05:13:12.463Z,-0.24
2019-01-04T05:15:42.695Z,-0.17
2019-01-04T05:18:12.762Z,-0.15
2019-01-04T05:20:43.425Z,-0.13
2019-01-04T05:23:13.087Z,-0.15
2019-01-04T05:25:41.957Z,-0.22
2019-01-04T05:28:11.151Z,-0.44
2019-01-04T05:30:40.345Z,-0.59
2019-01-04T05:33:11.598Z,-0.47
2019-01-04T05:35:41.092Z,-0.35
2019-01-04T05:38:10.070Z,-0.22
2019-01-04T05:40:41.570Z,-0.14
2019-01-04T05:43:11.784Z,-0.32
2019-01-04T05:45:40.737Z,-0.62
2019-01-04T05:48:12.331Z,-0.40
2019-01-04T05:50:41.301Z,-0.72
2019-01-04T05:53:10.727Z,-0.58
2019-01-04T05:55:41.928Z,-0.53
2019-01-04T05:58:11.152Z,-0.42
2019-01-04T06:00:40.100Z,-0.34
2019-01-04T06:03:11.354Z,-0.45
2019-01-04T06:05:42.291Z,-0.46
2019-01-04T06:08:11.465Z,-0.47
2019-01-04T06:10:41.151Z,-0.42
2019-01-04T06:13:12.947Z,-0.39
2019-01-04T06:15:42.568Z,-0.28
2019-01-04T06:18:12.167Z,-0.26
2019-01-04T06:20:41.124Z,-0.24
2019-01-04T06:23:10.110Z,-0.43
2019-01-04T06:25:39.834Z,-1.01
2019-01-04T06:28:08.796Z,-0.97
2019-01-04T06:30:38.028Z,-0.84
2019-01-04T06:33:07.016Z,-0.91
2019-01-04T06:35:35.953Z,-0.93
2019-01-04T06:38:05.134Z,-0.75
2019-01-04T06:40:34.139Z,-0.70
2019-01-04T06:43:03.098Z,-0.67
2019-01-04T06:45:32.070Z,-0.61
2019-01-04T06:48:02.474Z,-0.62
2019-01-04T06:50:32.486Z,-0.64
2019-01-04T06:53:01.817Z,-1.10
2019-01-04T06:56:03.391Z,-0.88
2019-01-04T06:58:33.110Z,-1.10
2019-01-04T07:01:02.293Z,-0.89
2019-01-04T07:03:31.504Z,-0.84
2019-01-04T07:06:00.712Z,-0.82
2019-01-04T07:08:31.898Z,-0.80
2019-01-04T07:11:01.554Z,-0.84
2019-01-04T07:13:30.514Z,-0.91
2019-01-04T07:16:00.486Z,-1.05
2019-01-04T07:18:29.902Z,-1.10
2019-01-04T07:20:59.132Z,-0.97
2019-01-04T07:23:28.033Z,-0.96
2019-01-04T07:25:58.013Z,-1.05
2019-01-04T07:28:28.809Z,-1.31
2019-01-04T07:30:59.186Z,-0.81
2019-01-04T07:33:28.851Z,-0.97
2019-01-04T07:35:57.808Z,-1.74
2019-01-04T07:38:26.994Z,-0.89
2019-01-04T07:40:55.969Z,-0.88
2019-01-04T07:43:27.147Z,-0.93
2019-01-04T07:45:56.974Z,-0.90
2019-01-04T07:48:26.958Z,-0.68
2019-01-04T07:50:57.309Z,-0.73
2019-01-04T07:53:26.559Z,-0.53
2019-01-04T07:55:57.371Z,-0.69
2019-01-04T07:58:26.553Z,-0.49
2019-01-04T08:00:55.331Z,-0.54
2019-01-04T08:03:26.346Z,-0.73
2019-01-04T08:05:58.387Z,-0.45
2019-01-04T08:08:27.535Z,-0.50
2019-01-04T08:10:58.819Z,-0.58
2019-01-04T08:13:30.985Z,-1.07
2019-01-04T08:16:00.168Z,-1.25
2019-01-04T08:18:29.909Z,-1.16
2019-01-04T08:21:02.680Z,-1.34
2019-01-04T08:23:31.941Z,-1.20
2019-01-04T08:26:00.885Z,-1.01
2019-01-04T08:28:29.849Z,-1.12
2019-01-04T08:30:58.814Z,-0.96
2019-01-04T08:33:28.947Z,-0.76
2019-01-04T08:36:02.546Z,-0.95
2019-01-04T08:38:31.836Z,-1.14
2019-01-04T08:41:02.171Z,-0.92
2019-01-04T08:43:31.440Z,-0.81
2019-01-04T08:46:01.544Z,-0.44
2019-01-04T08:48:31.524Z,-0.44
2019-01-04T08:51:00.891Z,-0.11
2019-01-04T08:54:00.824Z,0.06
2019-01-04T08:56:45.467Z,-0.33
2019-01-04T08:59:15.478Z,-0.56
2019-01-04T09:01:47.841Z,-0.08
2019-01-04T09:04:17.274Z,-0.31
2019-01-04T09:06:50.050Z,-0.27
2019-01-04T09:09:19.290Z,-0.16
2019-01-04T09:11:51.048Z,-0.07
2019-01-04T09:14:21.563Z,0.23
2019-01-04T09:17:00.081Z,0.28
2019-01-04T09:19:31.090Z,0.63
2019-01-04T09:22:02.583Z,-0.16
2019-01-04T09:24:31.816Z,-0.20
2019-01-04T09:27:04.100Z,0.21
2019-01-04T09:29:35.154Z,0.03
2019-01-04T09:32:08.385Z,0.33
2019-01-04T09:34:37.462Z,0.59
2019-01-04T09:37:10.741Z,0.75
2019-01-04T09:39:40.379Z,0.72
2019-01-04T09:42:15.730Z,0.45
2019-01-04T09:44:46.766Z,0.60
2019-01-04T09:47:17.976Z,0.35
2019-01-04T09:49:52.404Z,0.85
2019-01-04T09:52:22.535Z,0.48
2019-01-04T09:54:51.678Z,0.61
2019-01-04T09:57:23.533Z,0.54
2019-01-04T09:59:52.549Z,0.59
2019-01-04T10:02:21.475Z,0.56
2019-01-04T10:04:50.427Z,0.46
2019-01-04T10:07:19.890Z,0.68
2019-01-04T10:09:49.611Z,0.81
2019-01-04T10:12:19.108Z,1.04
2019-01-04T10:14:50.116Z,1.18
2019-01-04T10:17:19.927Z,0.98
2019-01-04T10:19:49.843Z,1.09
2019-01-04T10:22:27.476Z,1.22
2019-01-04T10:24:59.353Z,1.84
2019-01-04T10:27:30.610Z,1.79
2019-01-04T10:30:09.608Z,1.32
2019-01-04T10:32:40.023Z,1.96
2019-01-04T10:35:10.716Z,1.78
2019-01-04T10:37:44.335Z,2.13
2019-01-04T10:40:15.122Z,2.04
2019-01-04T10:42:46.555Z,2.24
2019-01-04T10:45:16.679Z,2.51
2019-01-04T10:47:49.513Z,2.47
2019-01-04T10:50:23.062Z,2.63
2019-01-04T10:52:55.193Z,2.90
2019-01-04T10:55:26.544Z,3.34
2019-01-04T10:57:58.851Z,3.87
2019-01-04T11:00:32.112Z,4.27
2019-01-04T11:03:05.665Z,4.29
2019-01-04T11:05:36.154Z,4.34
2019-01-04T11:08:05.115Z,3.86
2019-01-04T11:10:38.184Z,3.92
2019-01-04T11:13:22.274Z,4.29
2019-01-04T11:16:00.996Z,4.11
2019-01-04T11:18:31.796Z,3.66
2019-01-04T11:21:07.810Z,3.61
2019-01-04T11:24:21.525Z,4.01
2019-01-04T11:27:09.232Z,4.12
2019-01-04T11:30:25.453Z,4.51
2019-01-04T11:33:27.331Z,4.09
2019-01-04T11:36:40.269Z,4.22
2019-01-04T11:39:29.996Z,4.64
2019-01-04T11:42:47.250Z,4.32
2019-01-04T11:46:06.248Z,4.95
2019-01-04T11:48:46.410Z,4.90
2019-01-04T11:52:17.761Z,4.60
2019-01-04T11:54:46.892Z,4.71
2019-01-04T11:57:15.832Z,4.87
2019-01-04T11:59:45.029Z,5.54
2019-01-04T12:02:16.646Z,4.89
2019-01-04T12:04:47.606Z,5.31
2019-01-04T12:07:18.410Z,5.75
2019-01-04T12:09:51.845Z,5.38
2019-01-04T12:12:20.618Z,4.73
2019-01-04T12:14:50.905Z,5.03
2019-01-04T12:17:25.959Z,5.64
2019-01-04T12:19:59.309Z,5.85
2019-01-04T12:22:30.048Z,5.97
2019-01-04T12:24:59.545Z,5.98
2019-01-04T12:27:29.085Z,5.85
2019-01-04T12:29:59.165Z,5.77
2019-01-04T12:32:28.931Z,5.88
2019-01-04T12:34:57.882Z,6.00
2019-01-04T12:37:27.337Z,5.53
2019-01-04T12:39:56.269Z,5.64
2019-01-04T12:42:25.245Z,5.67
2019-01-04T12:44:55.182Z,5.55
2019-01-04T12:47:25.187Z,5.23
2019-01-04T12:49:56.248Z,5.28
2019-01-04T12:52:25.225Z,5.06
2019-01-04T12:55:06.222Z,4.75
2019-01-04T12:57:37.119Z,4.79
2019-01-04T13:00:10.933Z,4.81
2019-01-04T13:02:43.713Z,5.06
2019-01-04T13:05:12.625Z,5.22
2019-01-04T13:07:42.132Z,4.58
2019-01-04T13:10:12.332Z,4.72
2019-01-04T13:12:41.356Z,4.68
2019-01-04T13:15:10.543Z,4.90
2019-01-04T13:17:40.707Z,4.78
2019-01-04T13:20:10.430Z,4.85
2019-01-04T13:22:40.040Z,4.50
2019-01-04T13:25:08.990Z,4.65
2019-01-04T13:27:39.185Z,4.98
2019-01-04T13:30:08.113Z,4.94
2019-01-04T13:32:37.424Z,4.86
2019-01-04T13:35:06.635Z,4.80
2019-01-04T13:37:36.563Z,4.93
2019-01-04T13:40:09.068Z,5.13
2019-01-04T13:42:37.982Z,5.04
2019-01-04T13:45:09.678Z,4.89
2019-01-04T13:47:38.903Z,4.88
2019-01-04T13:50:09.014Z,4.59
2019-01-04T13:52:38.934Z,4.56
2019-01-04T13:55:08.119Z,4.48
2019-01-04T13:57:38.116Z,4.72
2019-01-04T14:00:10.471Z,4.48
2019-01-04T14:02:41.162Z,4.53
2019-01-04T14:05:10.852Z,4.76
2019-01-04T14:07:39.985Z,4.79
2019-01-04T14:10:17.968Z,4.67
2019-01-04T14:12:46.957Z,4.59
2019-01-04T14:15:16.672Z,4.32
2019-01-04T14:17:48.196Z,4.39
2019-01-04T14:20:19.345Z,4.27
2019-01-04T14:22:49.932Z,4.27
2019-01-04T14:25:19.134Z,4.15
2019-01-04T14:27:50.370Z,4.22
2019-01-04T14:30:24.454Z,3.97
2019-01-04T14:32:53.769Z,4.02
2019-01-04T14:35:23.955Z,4.12
2019-01-04T14:37:53.812Z,3.96
2019-01-04T14:40:25.229Z,4.05
2019-01-04T14:42:56.867Z,4.22
2019-01-04T14:45:32.024Z,3.92
2019-01-04T14:48:02.835Z,3.99
2019-01-04T14:50:32.658Z,4.04
2019-01-04T14:53:01.575Z,4.02
2019-01-04T14:55:30.743Z,3.86
2019-01-04T14:58:02.445Z,3.70
2019-01-04T15:00:31.375Z,3.69
2019-01-04T15:03:01.431Z,3.51
2019-01-04T15:05:32.758Z,3.49
2019-01-04T15:08:01.932Z,3.62
2019-01-04T15:10:30.955Z,3.49
2019-01-04T15:13:02.258Z,3.79
2019-01-04T15:15:33.124Z,3.57
2019-01-04T15:18:07.610Z,3.49
2019-01-04T15:20:52.421Z,3.51
2019-01-04T15:23:22.902Z,3.54
2019-01-04T15:25:54.118Z,3.50
2019-01-04T15:28:31.991Z,3.45
2019-01-04T15:31:15.909Z,3.46
2019-01-04T15:33:48.217Z,3.42
2019-01-04T15:36:19.456Z,3.40
2019-01-04T15:38:53.076Z,3.29
2019-01-04T15:41:25.673Z,3.15
2019-01-04T15:44:00.567Z,3.18
2019-01-04T15:46:32.682Z,3.25
2019-01-04T15:49:03.057Z,3.34
2019-01-04T15:51:53.203Z,3.27
2019-01-04T15:54:23.359Z,3.17
2019-01-04T15:57:03.507Z,3.19
2019-01-04T15:59:34.084Z,3.32
2019-01-04T16:02:08.514Z,3.26
2019-01-04T16:04:37.426Z,3.36
2019-01-04T16:07:09.235Z,3.42
2019-01-04T16:12:49.359Z,3.33
2019-01-04T16:15:22.738Z,3.36
2019-01-04T16:17:58.154Z,3.30
2019-01-04T16:20:37.048Z,3.17
2019-01-04T16:23:07.158Z,3.32
2019-01-04T16:25:39.318Z,3.29
2019-01-04T16:28:21.553Z,3.26
2019-01-04T16:31:00.722Z,3.32
2019-01-04T16:33:32.434Z,3.26
2019-01-04T16:36:33.603Z,3.39
2019-01-04T16:39:03.437Z,3.29
2019-01-04T16:41:35.646Z,3.26
2019-01-04T16:44:07.426Z,3.15
2019-01-04T16:46:40.044Z,3.25
2019-01-04T16:49:09.028Z,3.20
2019-01-04T16:51:37.972Z,3.30
2019-01-04T16:54:06.911Z,3.16
2019-01-04T16:56:38.749Z,3.05
2019-01-04T16:59:08.473Z,3.06
2019-01-04T17:01:37.961Z,3.09
2019-01-04T17:04:06.963Z,3.07
2019-01-04T17:06:38.157Z,3.14
2019-01-04T17:09:09.335Z,3.22
2019-01-04T17:11:39.330Z,3.31
2019-01-04T17:14:09.169Z,3.27
2019-01-04T17:16:40.327Z,3.45
2019-01-04T17:19:09.480Z,3.34
2019-01-04T17:21:38.447Z,3.38
2019-01-04T17:24:19.873Z,3.33
2019-01-04T17:26:49.211Z,3.42
2019-01-04T17:29:18.200Z,3.44
2019-01-04T17:31:48.499Z,3.53
2019-01-04T17:34:18.776Z,3.36
2019-01-04T17:36:48.814Z,3.39
2019-01-04T17:39:36.195Z,3.33
2019-01-04T17:42:07.678Z,3.42
2019-01-04T17:44:36.907Z,3.58
2019-01-04T17:47:05.813Z,3.68
2019-01-04T17:49:37.851Z,3.75
2019-01-04T17:52:08.140Z,3.73
2019-01-04T17:54:37.721Z,3.60
2019-01-04T17:57:07.489Z,3.69
2019-01-04T17:59:37.545Z,3.66
2019-01-04T18:02:10.135Z,3.63
2019-01-04T18:04:44.488Z,3.66
2019-01-04T18:07:16.071Z,3.69
2019-01-04T18:10:06.581Z,3.65
2019-01-04T18:12:36.390Z,3.55
2019-01-04T18:15:46.213Z,3.36
2019-01-04T18:18:21.091Z,3.38
2019-01-04T18:20:53.113Z,3.41
2019-01-04T18:23:29.102Z,3.55
2019-01-04T18:25:59.435Z,3.23
2019-01-04T18:28:31.763Z,3.13
2019-01-04T18:31:04.290Z,3.16
2019-01-04T18:33:34.058Z,3.28
2019-01-04T18:36:05.099Z,3.20
2019-01-04T18:38:36.962Z,3.17
2019-01-04T18:41:08.685Z,3.22
2019-01-04T18:43:40.668Z,3.27
2019-01-04T18:46:12.529Z,3.80
2019-01-04T18:48:54.005Z,3.50
2019-01-04T18:51:25.232Z,3.29
2019-01-04T18:53:56.532Z,3.27
2019-01-04T18:56:28.966Z,3.15
2019-01-04T18:59:04.134Z,3.18
2019-01-04T19:01:33.334Z,3.18
2019-01-04T19:04:05.372Z,3.20
2019-01-04T19:06:35.428Z,3.33
2019-01-04T19:09:08.021Z,3.37
2019-01-04T19:11:36.988Z,3.34
2019-01-04T19:14:08.583Z,3.31
2019-01-04T19:16:38.672Z,3.32
2019-01-04T19:19:13.621Z,3.24
2019-01-04T19:21:54.393Z,3.16
2019-01-04T19:24:24.048Z,3.20
2019-01-04T19:26:54.984Z,3.10
2019-01-04T19:29:27.066Z,3.21
2019-01-04T19:32:02.267Z,2.91
2019-01-04T19:34:31.201Z,2.80
2019-01-04T19:37:01.262Z,2.85
2019-01-04T19:39:31.811Z,2.94
2019-01-04T19:42:01.055Z,2.92
2019-01-04T19:44:30.470Z,2.86
2019-01-04T19:47:03.397Z,2.96
2019-01-04T19:49:33.592Z,2.59
2019-01-04T19:52:02.591Z,2.94
2019-01-04T19:54:31.528Z,2.89
2019-01-04T19:57:01.831Z,3.08
2019-01-04T19:59:32.616Z,3.00
2019-01-04T20:02:04.030Z,3.10
2019-01-04T20:04:35.764Z,3.18
2019-01-04T20:07:59.142Z,2.95
2019-01-04T20:11:34.913Z,3.24
2019-01-04T20:14:59.259Z,3.06
2019-01-04T20:17:53.880Z,3.14
2019-01-04T20:20:56.248Z,3.06
2019-01-04T20:23:43.413Z,3.03
2019-01-04T20:26:39.614Z,3.02
2019-01-04T20:29:40.864Z,3.05
2019-01-04T20:32:30.027Z,3.15
2019-01-04T20:35:23.724Z,3.03
2019-01-04T20:38:10.361Z,3.05
2019-01-04T20:41:01.040Z,3.19
2019-01-04T20:43:51.166Z,3.11
2019-01-04T20:46:55.411Z,3.10
2019-01-04T20:49:49.002Z,3.19
2019-01-04T20:52:38.467Z,3.30
2019-01-04T20:55:28.470Z,3.20
2019-01-04T20:58:13.928Z,3.43
2019-01-04T21:01:00.990Z,3.44
2019-01-04T21:03:58.368Z,3.46
2019-01-04T21:09:52.011Z,3.33
2019-01-04T21:12:42.109Z,3.36
2019-01-04T21:15:42.332Z,3.57
2019-01-04T21:18:37.800Z,3.25
2019-01-04T21:21:43.690Z,3.46
2019-01-04T21:24:41.166Z,3.49
2019-01-04T21:27:38.362Z,3.30
2019-01-04T21:30:25.323Z,3.49
2019-01-04T21:33:12.183Z,3.25
2019-01-04T21:35:56.326Z,3.13
2019-01-04T21:38:42.916Z,3.37
2019-01-04T21:41:25.254Z,3.28
2019-01-04T21:44:31.693Z,3.16
2019-01-04T21:47:18.441Z,2.98
2019-01-04T21:50:15.400Z,3.10
2019-01-04T21:53:04.055Z,3.08
2019-01-04T21:55:51.078Z,3.03
2019-01-04T21:58:45.411Z,3.07
2019-01-04T22:01:51.892Z,3.27
2019-01-04T22:04:38.775Z,3.12
2019-01-04T22:07:25.662Z,3.08
2019-01-04T22:10:12.461Z,3.13
2019-01-04T22:13:09.808Z,3.30
2019-01-04T22:15:58.539Z,3.20
2019-01-04T22:18:45.071Z,3.19
2019-01-04T22:21:31.673Z,3.23
2019-01-04T22:24:18.431Z,3.22
2019-01-04T22:27:05.244Z,3.37
2019-01-04T22:29:56.547Z,3.45
2019-01-04T22:32:50.576Z,3.33
2019-01-04T22:35:27.566Z,3.28
2019-01-04T22:38:15.622Z,3.19
2019-01-04T22:41:06.512Z,3.17
2019-01-04T22:44:04.290Z,3.32
2019-01-04T22:46:53.914Z,3.14
2019-01-04T22:49:40.686Z,3.14
2019-01-04T22:52:27.355Z,3.14
2019-01-04T22:55:14.423Z,3.07
2019-01-04T22:58:12.588Z,3.07
2019-01-04T23:01:03.044Z,2.95
2019-01-04T23:03:40.219Z,3.17
2019-01-04T23:06:44.289Z,3.20
2019-01-04T23:09:32.336Z,3.01
2019-01-04T23:12:29.667Z,2.99
2019-01-04T23:15:20.953Z,2.99
2019-01-04T23:18:08.965Z,3.05
2019-01-04T23:21:03.144Z,3.16
2019-01-04T23:23:51.142Z,3.15
2019-01-04T23:26:38.274Z,3.05
2019-01-04T23:29:26.424Z,3.27
2019-01-04T23:32:12.624Z,3.20
2019-01-04T23:34:59.310Z,3.14
2019-01-04T23:37:56.413Z,2.97
2019-01-04T23:40:59.577Z,2.99
2019-01-04T23:43:40.392Z,2.87
2019-01-04T23:46:30.461Z,2.93
2019-01-04T23:49:29.883Z,2.86
2019-01-04T23:52:21.078Z,2.79
2019-01-04T23:55:09.109Z,3.04
2019-01-04T23:57:56.650Z,2.80
